createdAt,value
2017-02-26T00:00:39.785Z,1010.59
2017-02-26T00:01:49.653Z,1010.55
2017-02-26T00:02:59.139Z,1010.6
2017-02-26T00:04:09.036Z,1010.6
2017-02-26T00:05:18.904Z,1010.5
2017-02-26T00:06:28.392Z,1010.48
2017-02-26T00:07:37.872Z,1010.49
2017-02-26T00:08:46.969Z,1010.51
2017-02-26T00:09:56.477Z,1010.44
2017-02-26T00:11:05.957Z,1010.46
2017-02-26T00:12:15.423Z,1010.44
2017-02-26T00:13:25.273Z,1010.54
2017-02-26T00:14:33.966Z,1010.5
2017-02-26T00:15:43.062Z,1010.49
2017-02-26T00:16:52.528Z,1010.51
2017-02-26T00:18:01.234Z,1010.52
2017-02-26T00:19:11.483Z,1010.52
2017-02-26T00:20:20.964Z,1010.61
2017-02-26T00:21:30.055Z,1010.52
2017-02-26T00:22:39.520Z,1010.48
2017-02-26T00:23:48.615Z,1010.52
2017-02-26T00:24:58.867Z,1010.52
2017-02-26T00:26:08.737Z,1010.53
2017-02-26T00:27:18.212Z,1010.53
2017-02-26T00:28:28.075Z,1010.55
2017-02-26T00:29:37.929Z,1010.58
2017-02-26T00:30:47.412Z,1010.54
2017-02-26T00:31:56.519Z,1010.56
2017-02-26T00:33:06.399Z,1010.58
2017-02-26T00:34:16.261Z,1010.62
2017-02-26T00:35:26.157Z,1010.7
2017-02-26T00:36:35.649Z,1010.66
2017-02-26T00:37:45.509Z,1010.7
2017-02-26T00:38:54.988Z,1010.67
2017-02-26T00:40:04.541Z,1010.69
2017-02-26T00:41:13.638Z,1010.71
2017-02-26T00:42:22.728Z,1010.71
2017-02-26T00:43:32.216Z,1010.73
2017-02-26T00:44:41.723Z,1010.7
2017-02-26T00:45:51.257Z,1010.66
2017-02-26T00:47:00.743Z,1010.66
2017-02-26T00:48:09.461Z,1010.61
2017-02-26T00:49:18.943Z,1010.66
2017-02-26T00:50:28.820Z,1010.6
2017-02-26T00:51:38.296Z,1010.69
2017-02-26T00:52:47.787Z,1010.72
2017-02-26T00:53:57.726Z,1010.68
2017-02-26T00:55:07.225Z,1010.7
2017-02-26T00:56:17.074Z,1010.73
2017-02-26T00:57:25.787Z,1010.68
2017-02-26T00:58:34.881Z,1010.73
2017-02-26T00:59:45.147Z,1010.7
2017-02-26T01:00:54.224Z,1010.64
2017-02-26T01:02:03.691Z,1010.62
2017-02-26T01:03:13.548Z,1010.54
2017-02-26T01:04:23.430Z,1010.54
2017-02-26T01:05:32.913Z,1010.45
2017-02-26T01:06:41.986Z,1010.44
2017-02-26T01:07:51.088Z,1010.46
2017-02-26T01:09:00.562Z,1010.48
2017-02-26T01:10:10.047Z,1010.4
2017-02-26T01:11:18.768Z,1010.45
2017-02-26T01:12:28.237Z,1010.42
2017-02-26T01:13:37.356Z,1010.46
2017-02-26T01:14:46.836Z,1010.42
2017-02-26T01:15:55.920Z,1010.38
2017-02-26T01:17:05.788Z,1010.35
2017-02-26T01:18:15.698Z,1010.35
2017-02-26T01:19:25.187Z,1010.3
2017-02-26T01:20:35.053Z,1010.31
2017-02-26T01:21:44.536Z,1010.31
2017-02-26T01:22:54.028Z,1010.32
2017-02-26T01:24:03.941Z,1010.32
2017-02-26T01:25:13.402Z,1010.34
2017-02-26T01:26:22.883Z,1010.34
2017-02-26T01:27:32.391Z,1010.38
2017-02-26T01:28:41.924Z,1010.34
2017-02-26T01:29:51.023Z,1010.38
2017-02-26T01:31:00.939Z,1010.26
2017-02-26T01:32:10.812Z,1010.29
2017-02-26T01:33:21.427Z,1010.25
2017-02-26T01:34:30.913Z,1010.33
2017-02-26T01:35:40.823Z,1010.32
2017-02-26T01:36:50.702Z,1010.27
2017-02-26T01:38:00.187Z,1010.2
2017-02-26T01:39:09.677Z,1010.22
2017-02-26T01:40:19.177Z,1010.16
2017-02-26T01:41:28.664Z,1010.19
2017-02-26T01:42:38.142Z,1010.16
2017-02-26T01:43:46.845Z,1010.16
2017-02-26T01:44:55.568Z,1010.14
2017-02-26T01:46:04.665Z,1010.14
2017-02-26T01:47:13.764Z,1010.18
2017-02-26T01:48:22.861Z,1010.13
2017-02-26T01:49:31.954Z,1010.1
2017-02-26T01:50:41.437Z,1010.13
2017-02-26T01:51:51.298Z,1010.07
2017-02-26T01:53:01.160Z,1010.09
2017-02-26T01:54:11.031Z,1010.08
2017-02-26T01:55:20.143Z,1010.05
2017-02-26T01:56:30.014Z,1010.1
2017-02-26T01:57:39.503Z,1010.06
2017-02-26T01:58:49.359Z,1009.96
2017-02-26T01:59:59.234Z,1010
2017-02-26T02:01:08.326Z,1010.01
2017-02-26T02:02:18.183Z,1010.01
2017-02-26T02:03:27.650Z,1010
2017-02-26T02:04:36.735Z,1009.98
2017-02-26T02:05:46.586Z,1009.93
2017-02-26T02:06:56.080Z,1010.02
2017-02-26T02:08:05.954Z,1009.95
2017-02-26T02:09:15.040Z,1009.98
2017-02-26T02:10:24.906Z,1009.98
2017-02-26T02:11:34.002Z,1009.98
2017-02-26T02:12:43.501Z,1009.96
2017-02-26T02:13:52.617Z,1009.96
2017-02-26T02:15:02.108Z,1009.92
2017-02-26T02:16:10.844Z,1009.89
2017-02-26T02:17:20.331Z,1009.93
2017-02-26T02:18:29.813Z,1009.89
2017-02-26T02:19:38.906Z,1009.77
2017-02-26T02:20:48.009Z,1009.84
2017-02-26T02:21:57.559Z,1009.85
2017-02-26T02:23:06.654Z,1009.8
2017-02-26T02:24:16.535Z,1009.78
2017-02-26T02:25:26.009Z,1009.72
2017-02-26T02:26:35.511Z,1009.75
2017-02-26T02:27:44.212Z,1009.77
2017-02-26T02:28:54.064Z,1009.74
2017-02-26T02:30:03.536Z,1009.73
2017-02-26T02:31:13.016Z,1009.69
2017-02-26T02:32:22.114Z,1009.72
2017-02-26T02:33:32.360Z,1009.67
2017-02-26T02:34:42.237Z,1009.71
2017-02-26T02:35:52.476Z,1009.66
2017-02-26T02:37:02.340Z,1009.69
2017-02-26T02:38:11.809Z,1009.66
2017-02-26T02:39:20.898Z,1009.69
2017-02-26T02:40:29.983Z,1009.53
2017-02-26T02:41:39.071Z,1009.57
2017-02-26T02:42:48.580Z,1009.47
2017-02-26T02:43:57.673Z,1009.52
2017-02-26T02:45:07.203Z,1009.54
2017-02-26T02:46:17.093Z,1009.49
2017-02-26T02:47:26.578Z,1009.46
2017-02-26T02:48:35.666Z,1009.42
2017-02-26T02:49:44.766Z,1009.41
2017-02-26T02:50:54.616Z,1009.38
2017-02-26T02:52:03.719Z,1009.35
2017-02-26T02:53:13.174Z,1009.29
2017-02-26T02:54:22.272Z,1009.32
2017-02-26T02:55:31.374Z,1009.31
2017-02-26T02:56:40.513Z,1009.3
2017-02-26T02:57:49.617Z,1009.27
2017-02-26T02:58:59.100Z,1009.23
2017-02-26T03:00:08.560Z,1009.2
2017-02-26T03:01:18.412Z,1009.17
2017-02-26T03:02:28.332Z,1009.15
2017-02-26T03:03:37.805Z,1009.15
2017-02-26T03:04:47.711Z,1009.19
2017-02-26T03:05:56.810Z,1009.15
2017-02-26T03:07:06.293Z,1009.1
2017-02-26T03:08:15.791Z,1009.09
2017-02-26T03:09:25.272Z,1009.06
2017-02-26T03:10:34.771Z,1009.13
2017-02-26T03:11:44.625Z,1009.1
2017-02-26T03:12:53.336Z,1009.01
2017-02-26T03:14:02.436Z,1009.02
2017-02-26T03:15:11.148Z,1009.07
2017-02-26T03:16:20.269Z,1009.16
2017-02-26T03:17:29.365Z,1009.13
2017-02-26T03:18:39.228Z,1009.19
2017-02-26T03:19:49.116Z,1009.18
2017-02-26T03:20:58.976Z,1009.18
2017-02-26T03:22:08.848Z,1009.13
2017-02-26T03:23:19.096Z,1009.12
2017-02-26T03:24:28.571Z,1009.12
2017-02-26T03:25:38.815Z,1009.1
2017-02-26T03:26:48.694Z,1009.11
2017-02-26T03:27:58.976Z,1009.08
2017-02-26T03:29:08.447Z,1009.09
2017-02-26T03:30:17.553Z,1009.06
2017-02-26T03:31:27.470Z,1009.04
2017-02-26T03:32:36.968Z,1009
2017-02-26T03:33:45.679Z,1008.95
2017-02-26T03:34:55.171Z,1008.95
2017-02-26T03:36:03.869Z,1008.93
2017-02-26T03:37:12.968Z,1008.92
2017-02-26T03:38:22.461Z,1008.89
2017-02-26T03:39:31.945Z,1008.86
2017-02-26T03:40:40.659Z,1008.89
2017-02-26T03:41:50.528Z,1008.95
2017-02-26T03:43:01.205Z,1008.98
2017-02-26T03:44:10.690Z,1008.88
2017-02-26T03:45:20.170Z,1008.93
2017-02-26T03:46:29.296Z,1008.97
2017-02-26T03:47:37.992Z,1009
2017-02-26T03:48:47.521Z,1009.06
2017-02-26T03:49:56.996Z,1009.04
2017-02-26T03:51:06.479Z,1008.94
2017-02-26T03:52:16.357Z,1008.98
2017-02-26T03:53:26.238Z,1008.97
2017-02-26T03:54:36.103Z,1009.06
2017-02-26T03:55:45.592Z,1008.96
2017-02-26T03:56:54.697Z,1008.97
2017-02-26T03:58:04.561Z,1008.91
2017-02-26T03:59:14.418Z,1008.96
2017-02-26T04:00:23.505Z,1009
2017-02-26T04:01:32.987Z,1008.93
2017-02-26T04:02:42.900Z,1008.93
2017-02-26T04:03:53.535Z,1008.92
2017-02-26T04:05:03.016Z,1008.89
2017-02-26T04:06:11.886Z,1008.83
2017-02-26T04:07:21.375Z,1008.91
2017-02-26T04:08:31.639Z,1008.89
2017-02-26T04:09:41.167Z,1008.91
2017-02-26T04:10:50.251Z,1008.92
2017-02-26T04:11:59.337Z,1008.94
2017-02-26T04:13:08.824Z,1008.78
2017-02-26T04:14:19.066Z,1008.89
2017-02-26T04:15:28.957Z,1008.87
2017-02-26T04:16:38.113Z,1008.85
2017-02-26T04:17:47.205Z,1008.86
2017-02-26T04:18:57.464Z,1008.78
2017-02-26T04:20:07.338Z,1008.82
2017-02-26T04:21:16.456Z,1008.79
2017-02-26T04:22:26.324Z,1008.78
2017-02-26T04:23:36.189Z,1008.81
2017-02-26T04:24:46.055Z,1008.83
2017-02-26T04:25:55.937Z,1008.89
2017-02-26T04:27:05.792Z,1008.85
2017-02-26T04:28:14.883Z,1008.85
2017-02-26T04:29:24.413Z,1008.84
2017-02-26T04:30:33.504Z,1008.85
2017-02-26T04:31:43.362Z,1008.77
2017-02-26T04:32:53.219Z,1008.8
2017-02-26T04:34:02.683Z,1008.75
2017-02-26T04:35:12.147Z,1008.74
2017-02-26T04:36:22.403Z,1008.67
2017-02-26T04:37:31.527Z,1008.65
2017-02-26T04:38:40.989Z,1008.71
2017-02-26T04:39:50.469Z,1008.74
2017-02-26T04:40:59.948Z,1008.8
2017-02-26T04:42:09.038Z,1008.72
2017-02-26T04:43:18.147Z,1008.79
2017-02-26T04:44:27.614Z,1008.79
2017-02-26T04:45:36.319Z,1008.76
2017-02-26T04:46:46.549Z,1008.73
2017-02-26T04:47:56.017Z,1008.7
2017-02-26T04:49:06.244Z,1008.62
2017-02-26T04:50:15.735Z,1008.63
2017-02-26T04:51:24.465Z,1008.66
2017-02-26T04:52:33.614Z,1008.59
2017-02-26T04:53:43.086Z,1008.54
2017-02-26T04:54:52.574Z,1008.5
2017-02-26T04:56:02.041Z,1008.41
2017-02-26T04:57:11.506Z,1008.46
2017-02-26T04:58:20.990Z,1008.48
2017-02-26T04:59:30.091Z,1008.45
2017-02-26T05:00:39.180Z,1008.45
2017-02-26T05:01:47.898Z,1008.41
2017-02-26T05:02:57.001Z,1008.46
2017-02-26T05:04:06.145Z,1008.45
2017-02-26T05:05:16.006Z,1008.41
2017-02-26T05:06:25.120Z,1008.4
2017-02-26T05:07:34.584Z,1008.41
2017-02-26T05:08:44.439Z,1008.46
2017-02-26T05:09:54.352Z,1008.23
2017-02-26T05:11:04.592Z,1008.3
2017-02-26T05:12:14.472Z,1008.24
2017-02-26T05:13:23.176Z,1008.31
2017-02-26T05:14:31.896Z,1008.25
2017-02-26T05:15:41.754Z,1008.22
2017-02-26T05:16:51.627Z,1008.24
2017-02-26T05:18:01.476Z,1008.13
2017-02-26T05:19:11.353Z,1008.25
2017-02-26T05:20:21.235Z,1008.29
2017-02-26T05:21:30.769Z,1008.29
2017-02-26T05:22:40.241Z,1008.28
2017-02-26T05:23:49.347Z,1008.38
2017-02-26T05:24:58.430Z,1008.33
2017-02-26T05:26:08.663Z,1008.38
2017-02-26T05:27:17.436Z,1008.36
2017-02-26T05:28:27.291Z,1008.37
2017-02-26T05:29:36.755Z,1008.37
2017-02-26T05:30:47.011Z,1008.37
2017-02-26T05:31:56.507Z,1008.31
2017-02-26T05:33:05.586Z,1008.36
2017-02-26T05:34:14.296Z,1008.44
2017-02-26T05:35:24.154Z,1008.41
2017-02-26T05:36:33.665Z,1008.31
2017-02-26T05:37:43.519Z,1008.37
2017-02-26T05:38:53.789Z,1008.27
2017-02-26T05:40:03.279Z,1008.28
2017-02-26T05:41:12.370Z,1008.29
2017-02-26T05:42:21.900Z,1008.27
2017-02-26T05:43:31.750Z,1008.23
2017-02-26T05:44:40.896Z,1008.16
2017-02-26T05:45:49.999Z,1008.09
2017-02-26T05:46:59.105Z,1008.18
2017-02-26T05:48:08.586Z,1008.09
2017-02-26T05:49:17.685Z,1008.13
2017-02-26T05:50:27.533Z,1007.97
2017-02-26T05:51:36.653Z,1008.03
2017-02-26T05:52:45.736Z,1007.96
2017-02-26T05:53:55.984Z,1007.99
2017-02-26T05:55:04.695Z,1007.9
2017-02-26T05:56:14.954Z,1007.93
2017-02-26T05:57:24.430Z,1007.92
2017-02-26T05:58:33.521Z,1007.87
2017-02-26T05:59:42.633Z,1007.89
2017-02-26T06:00:52.871Z,1007.96
2017-02-26T06:02:02.753Z,1007.94
2017-02-26T06:03:11.468Z,1007.95
2017-02-26T06:04:20.170Z,1007.9
2017-02-26T06:05:29.244Z,1007.89
2017-02-26T06:06:38.324Z,1007.91
2017-02-26T06:07:47.415Z,1007.96
2017-02-26T06:08:56.904Z,1007.89
2017-02-26T06:10:06.406Z,1007.89
2017-02-26T06:11:16.277Z,1007.91
2017-02-26T06:12:25.381Z,1007.91
2017-02-26T06:13:34.850Z,1007.92
2017-02-26T06:14:44.700Z,1007.92
2017-02-26T06:15:54.170Z,1008.04
2017-02-26T06:17:03.633Z,1008.01
2017-02-26T06:18:12.717Z,1008.05
2017-02-26T06:19:21.468Z,1008.04
2017-02-26T06:20:30.950Z,1008.06
2017-02-26T06:21:40.450Z,1008.13
2017-02-26T06:22:49.927Z,1008.11
2017-02-26T06:23:59.799Z,1008.1
2017-02-26T06:25:09.664Z,1008.12
2017-02-26T06:26:19.139Z,1008.16
2017-02-26T06:27:28.227Z,1008.14
2017-02-26T06:28:37.327Z,1008.19
2017-02-26T06:29:46.032Z,1008.14
2017-02-26T06:30:55.609Z,1008.18
2017-02-26T06:32:05.881Z,1008.16
2017-02-26T06:33:15.359Z,1008.22
2017-02-26T06:34:25.204Z,1008.21
2017-02-26T06:35:34.304Z,1008.29
2017-02-26T06:36:43.838Z,1008.26
2017-02-26T06:37:53.685Z,1008.23
2017-02-26T06:39:02.774Z,1008.24
2017-02-26T06:40:12.636Z,1008.2
2017-02-26T06:41:23.267Z,1008.27
2017-02-26T06:42:32.739Z,1008.27
2017-02-26T06:43:42.212Z,1008.28
2017-02-26T06:44:51.741Z,1008.3
2017-02-26T06:46:01.603Z,1008.37
2017-02-26T06:47:10.326Z,1008.33
2017-02-26T06:48:19.419Z,1008.39
2017-02-26T06:49:28.542Z,1008.39
2017-02-26T06:50:38.049Z,1008.37
2017-02-26T06:51:47.137Z,1008.46
2017-02-26T06:52:57.007Z,1008.54
2017-02-26T06:54:07.246Z,1008.49
2017-02-26T06:55:16.723Z,1008.55
2017-02-26T06:56:26.216Z,1008.59
2017-02-26T06:57:35.343Z,1008.68
2017-02-26T06:58:44.839Z,1008.62
2017-02-26T06:59:54.295Z,1008.68
2017-02-26T07:01:03.771Z,1008.66
2017-02-26T07:02:13.647Z,1008.66
2017-02-26T07:03:22.773Z,1008.65
2017-02-26T07:04:31.466Z,1008.69
2017-02-26T07:05:41.727Z,1008.72
2017-02-26T07:06:51.192Z,1008.73
2017-02-26T07:08:01.059Z,1008.74
2017-02-26T07:09:10.543Z,1008.8
2017-02-26T07:10:20.024Z,1008.78
2017-02-26T07:11:28.755Z,1008.77
2017-02-26T07:12:38.246Z,1008.85
2017-02-26T07:13:46.949Z,1008.79
2017-02-26T07:14:56.097Z,1008.77
2017-02-26T07:16:05.952Z,1008.74
2017-02-26T07:17:15.423Z,1008.8
2017-02-26T07:18:24.514Z,1008.79
2017-02-26T07:19:33.601Z,1008.81
2017-02-26T07:20:42.310Z,1008.87
2017-02-26T07:21:52.204Z,1008.81
2017-02-26T07:23:01.707Z,1008.83
2017-02-26T07:24:11.566Z,1008.89
2017-02-26T07:25:20.651Z,1008.8
2017-02-26T07:26:30.133Z,1008.88
2017-02-26T07:27:39.611Z,1008.9
2017-02-26T07:28:49.097Z,1008.96
2017-02-26T07:29:59.343Z,1008.97
2017-02-26T07:31:08.809Z,1008.9
2017-02-26T07:32:17.521Z,1008.84
2017-02-26T07:33:26.627Z,1008.93
2017-02-26T07:34:36.491Z,1008.91
2017-02-26T07:35:46.355Z,1008.91
2017-02-26T07:36:55.813Z,1008.93
2017-02-26T07:38:05.691Z,1008.96
2017-02-26T07:39:15.986Z,1008.96
2017-02-26T07:40:25.920Z,1009.07
2017-02-26T07:41:35.041Z,1009.03
2017-02-26T07:42:44.526Z,1009.13
2017-02-26T07:43:54.383Z,1009.04
2017-02-26T07:45:03.896Z,1009.13
2017-02-26T07:46:13.811Z,1009.16
2017-02-26T07:47:23.312Z,1009.06
2017-02-26T07:48:32.800Z,1009.12
2017-02-26T07:49:42.659Z,1009.07
2017-02-26T07:50:52.142Z,1009.14
2017-02-26T07:52:01.668Z,1009.15
2017-02-26T07:53:11.144Z,1009.12
2017-02-26T07:54:20.235Z,1009.12
2017-02-26T07:55:30.109Z,1009.18
2017-02-26T07:56:39.205Z,1009.18
2017-02-26T07:57:49.057Z,1009.19
2017-02-26T07:58:58.178Z,1009.16
2017-02-26T08:00:06.902Z,1009.11
2017-02-26T08:01:16.375Z,1009.14
2017-02-26T08:02:25.489Z,1009.12
2017-02-26T08:03:34.578Z,1009.08
2017-02-26T08:04:43.280Z,1008.98
2017-02-26T08:05:52.764Z,1009.03
2017-02-26T08:07:02.633Z,1008.95
2017-02-26T08:08:12.891Z,1008.83
2017-02-26T08:09:22.018Z,1008.79
2017-02-26T08:10:31.116Z,1008.75
2017-02-26T08:11:40.975Z,1008.79
2017-02-26T08:12:50.857Z,1008.61
2017-02-26T08:14:00.708Z,1008.61
2017-02-26T08:15:09.413Z,1008.51
2017-02-26T08:16:18.909Z,1008.52
2017-02-26T08:17:28.374Z,1008.69
2017-02-26T08:18:37.521Z,1008.73
2017-02-26T08:19:47.379Z,1008.72
2017-02-26T08:20:56.478Z,1008.78
2017-02-26T08:22:05.966Z,1008.83
2017-02-26T08:23:14.691Z,1008.81
2017-02-26T08:24:24.199Z,1008.82
2017-02-26T08:25:32.904Z,1008.95
2017-02-26T08:26:41.624Z,1008.93
2017-02-26T08:27:51.112Z,1008.91
2017-02-26T08:29:00.584Z,1008.95
2017-02-26T08:30:10.060Z,1008.89
2017-02-26T08:31:19.178Z,1008.89
2017-02-26T08:32:28.282Z,1008.98
2017-02-26T08:33:37.383Z,1008.86
2017-02-26T08:34:46.854Z,1008.92
2017-02-26T08:35:56.707Z,1008.85
2017-02-26T08:37:06.203Z,1008.84
2017-02-26T08:38:15.725Z,1008.82
2017-02-26T08:39:25.200Z,1008.87
2017-02-26T08:40:33.910Z,1008.84
2017-02-26T08:41:43.767Z,1008.85
2017-02-26T08:42:53.631Z,1008.83
2017-02-26T08:44:02.720Z,1008.85
2017-02-26T08:45:11.819Z,1008.81
2017-02-26T08:46:21.667Z,1008.86
2017-02-26T08:47:31.574Z,1008.86
2017-02-26T08:48:40.288Z,1008.93
2017-02-26T08:49:50.529Z,1008.95
2017-02-26T08:51:00.013Z,1008.95
2017-02-26T08:52:09.120Z,1008.98
2017-02-26T08:53:18.997Z,1009.01
2017-02-26T08:54:28.467Z,1009.04
2017-02-26T08:55:38.385Z,1009.07
2017-02-26T08:56:47.472Z,1009.12
2017-02-26T08:57:56.580Z,1009.15
2017-02-26T08:59:06.436Z,1009.21
2017-02-26T09:00:15.916Z,1009.24
2017-02-26T09:01:25.786Z,1009.21
2017-02-26T09:02:35.292Z,1009.27
2017-02-26T09:03:44.780Z,1009.27
2017-02-26T09:04:53.870Z,1009.27
2017-02-26T09:06:03.371Z,1009.3
2017-02-26T09:07:13.226Z,1009.26
2017-02-26T09:08:22.709Z,1009.32
2017-02-26T09:10:48.396Z,1009.22
2017-02-26T09:11:57.876Z,1009.28
2017-02-26T09:13:07.725Z,1009.24
2017-02-26T09:14:17.569Z,1009.23
2017-02-26T09:15:27.418Z,1009.24
2017-02-26T09:16:38.039Z,1009.29
2017-02-26T09:17:47.513Z,1009.28
2017-02-26T09:18:56.971Z,1009.24
2017-02-26T09:20:05.690Z,1009.21
2017-02-26T09:21:14.398Z,1009.24
2017-02-26T09:22:23.872Z,1009.25
2017-02-26T09:23:33.734Z,1009.21
2017-02-26T09:24:42.833Z,1009.28
2017-02-26T09:25:52.324Z,1009.28
2017-02-26T09:27:02.195Z,1009.35
2017-02-26T09:28:11.285Z,1009.24
2017-02-26T09:29:21.539Z,1009.28
2017-02-26T09:30:31.394Z,1009.32
2017-02-26T09:31:40.874Z,1009.23
2017-02-26T09:32:50.773Z,1009.3
2017-02-26T09:34:00.237Z,1009.3
2017-02-26T09:35:09.726Z,1009.33
2017-02-26T09:36:18.804Z,1009.32
2017-02-26T09:37:27.891Z,1009.31
2017-02-26T09:38:37.787Z,1009.33
2017-02-26T09:39:47.668Z,1009.28
2017-02-26T09:40:57.524Z,1009.3
2017-02-26T09:42:06.621Z,1009.33
2017-02-26T09:43:15.721Z,1009.33
2017-02-26T09:44:25.581Z,1009.28
2017-02-26T09:45:35.062Z,1009.27
2017-02-26T09:46:44.140Z,1009.25
2017-02-26T09:47:53.235Z,1009.29
2017-02-26T09:49:02.714Z,1009.36
2017-02-26T09:50:12.172Z,1009.32
2017-02-26T09:51:21.643Z,1009.35
2017-02-26T09:52:31.123Z,1009.36
2017-02-26T09:53:41.365Z,1009.28
2017-02-26T09:54:51.442Z,1009.32
2017-02-26T09:56:00.540Z,1009.36
2017-02-26T09:57:10.017Z,1009.35
2017-02-26T09:58:19.894Z,1009.4
2017-02-26T09:59:29.755Z,1009.37
2017-02-26T10:00:39.986Z,1009.45
2017-02-26T10:01:49.839Z,1009.45
2017-02-26T10:02:58.917Z,1009.43
2017-02-26T10:04:08.413Z,1009.48
2017-02-26T10:05:18.257Z,1009.44
2017-02-26T10:06:28.112Z,1009.44
2017-02-26T10:07:37.987Z,1009.43
2017-02-26T10:08:47.451Z,1009.47
2017-02-26T10:09:56.930Z,1009.41
2017-02-26T10:11:06.776Z,1009.44
2017-02-26T10:12:16.634Z,1009.49
2017-02-26T10:13:26.874Z,1009.47
2017-02-26T10:14:35.950Z,1009.42
2017-02-26T10:15:45.813Z,1009.46
2017-02-26T10:16:55.671Z,1009.39
2017-02-26T10:18:05.139Z,1009.41
2017-02-26T10:19:14.995Z,1009.38
2017-02-26T10:20:25.229Z,1009.38
2017-02-26T10:21:34.693Z,1009.41
2017-02-26T10:22:44.166Z,1009.47
2017-02-26T10:23:53.663Z,1009.51
2017-02-26T10:25:02.740Z,1009.47
2017-02-26T10:26:12.216Z,1009.47
2017-02-26T10:27:21.945Z,1009.53
2017-02-26T10:28:31.039Z,1009.47
2017-02-26T10:29:40.131Z,1009.5
2017-02-26T10:30:49.994Z,1009.56
2017-02-26T10:31:59.852Z,1009.55
2017-02-26T10:33:08.946Z,1009.49
2017-02-26T10:34:18.805Z,1009.43
2017-02-26T10:35:28.265Z,1009.46
2017-02-26T10:36:37.350Z,1009.49
2017-02-26T10:37:46.058Z,1009.49
2017-02-26T10:38:54.800Z,1009.45
2017-02-26T10:40:04.655Z,1009.48
2017-02-26T10:41:14.164Z,1009.53
2017-02-26T10:42:23.653Z,1009.52
2017-02-26T10:43:33.912Z,1009.57
2017-02-26T10:44:43.374Z,1009.5
2017-02-26T10:45:53.231Z,1009.53
2017-02-26T10:47:01.938Z,1009.52
2017-02-26T10:48:11.428Z,1009.63
2017-02-26T10:49:21.287Z,1009.65
2017-02-26T10:50:30.385Z,1009.62
2017-02-26T10:51:39.889Z,1009.52
2017-02-26T10:52:49.352Z,1009.54
2017-02-26T10:53:59.224Z,1009.58
2017-02-26T10:55:09.108Z,1009.54
2017-02-26T10:56:18.954Z,1009.47
2017-02-26T10:57:28.411Z,1009.4
2017-02-26T10:58:37.881Z,1009.39
2017-02-26T10:59:47.354Z,1009.43
2017-02-26T11:00:56.460Z,1009.4
2017-02-26T11:02:05.565Z,1009.35
2017-02-26T11:03:15.047Z,1009.4
2017-02-26T11:04:24.924Z,1009.37
2017-02-26T11:05:34.001Z,1009.35
2017-02-26T11:06:43.484Z,1009.39
2017-02-26T11:07:53.356Z,1009.37
2017-02-26T11:09:03.245Z,1009.35
2017-02-26T11:10:13.112Z,1009.32
2017-02-26T11:11:23.365Z,1009.27
2017-02-26T11:12:32.862Z,1009.25
2017-02-26T11:13:42.741Z,1009.33
2017-02-26T11:14:51.843Z,1009.41
2017-02-26T11:16:01.331Z,1009.41
2017-02-26T11:17:10.821Z,1009.32
2017-02-26T11:18:19.927Z,1009.27
2017-02-26T11:19:29.779Z,1009.31
2017-02-26T11:20:39.625Z,1009.27
2017-02-26T11:21:48.720Z,1009.27
2017-02-26T11:22:58.180Z,1009.22
2017-02-26T11:24:07.664Z,1009.32
2017-02-26T11:25:17.915Z,1009.25
2017-02-26T11:26:28.158Z,1009.25
2017-02-26T11:27:37.626Z,1009.21
2017-02-26T11:28:46.732Z,1009.24
2017-02-26T11:29:56.210Z,1009.12
2017-02-26T11:31:06.434Z,1009.21
2017-02-26T11:32:15.541Z,1009.18
2017-02-26T11:33:25.027Z,1009.24
2017-02-26T11:34:34.493Z,1009.17
2017-02-26T11:35:44.771Z,1009.17
2017-02-26T11:36:54.267Z,1009.23
2017-02-26T11:38:03.734Z,1009.19
2017-02-26T11:39:13.217Z,1009.12
2017-02-26T11:40:22.692Z,1009.11
2017-02-26T11:41:32.156Z,1009.11
2017-02-26T11:42:41.646Z,1009.13
2017-02-26T11:43:51.498Z,1009.1
2017-02-26T11:45:01.365Z,1009.09
2017-02-26T11:46:10.846Z,1009.02
2017-02-26T11:47:20.695Z,1009.06
2017-02-26T11:48:30.941Z,1009.04
2017-02-26T11:49:40.411Z,1008.96
2017-02-26T11:50:49.502Z,1008.99
2017-02-26T11:51:59.005Z,1009.05
2017-02-26T11:53:08.876Z,1009.01
2017-02-26T11:54:19.122Z,1008.99
2017-02-26T11:55:28.203Z,1008.9
2017-02-26T11:56:37.693Z,1008.95
2017-02-26T11:57:47.167Z,1008.89
2017-02-26T11:58:56.665Z,1008.93
2017-02-26T12:00:06.524Z,1008.88
2017-02-26T12:01:16.379Z,1008.87
2017-02-26T12:02:26.614Z,1008.91
2017-02-26T12:03:36.100Z,1008.87
2017-02-26T12:04:46.345Z,1008.92
2017-02-26T12:05:56.221Z,1008.96
2017-02-26T12:07:05.695Z,1008.95
2017-02-26T12:08:15.957Z,1008.9
2017-02-26T12:09:25.439Z,1008.88
2017-02-26T12:10:35.332Z,1008.86
2017-02-26T12:11:45.593Z,1008.91
2017-02-26T12:12:54.300Z,1008.9
2017-02-26T12:14:04.140Z,1008.93
2017-02-26T12:15:13.243Z,1008.86
2017-02-26T12:16:23.475Z,1008.88
2017-02-26T12:17:32.959Z,1008.79
2017-02-26T12:18:43.603Z,1008.87
2017-02-26T12:19:53.076Z,1008.87
2017-02-26T12:21:02.179Z,1008.82
2017-02-26T12:22:12.197Z,1008.77
2017-02-26T12:23:22.055Z,1008.88
2017-02-26T12:24:31.535Z,1008.81
2017-02-26T12:25:40.266Z,1008.8
2017-02-26T12:26:49.347Z,1008.8
2017-02-26T12:27:59.226Z,1008.79
2017-02-26T12:29:09.100Z,1008.77
2017-02-26T12:30:18.226Z,1008.75
2017-02-26T12:31:27.683Z,1008.78
2017-02-26T12:32:36.788Z,1008.79
2017-02-26T12:33:45.906Z,1008.74
2017-02-26T12:34:55.335Z,1008.71
2017-02-26T12:36:04.815Z,1008.71
2017-02-26T12:37:13.513Z,1008.7
2017-02-26T12:38:22.608Z,1008.74
2017-02-26T12:39:32.071Z,1008.69
2017-02-26T12:40:41.167Z,1008.7
2017-02-26T12:41:50.652Z,1008.65
2017-02-26T12:43:00.556Z,1008.72
2017-02-26T12:44:09.648Z,1008.67
2017-02-26T12:45:18.853Z,1008.68
2017-02-26T12:46:28.446Z,1008.58
2017-02-26T12:47:37.935Z,1008.57
2017-02-26T12:48:47.807Z,1008.46
2017-02-26T12:49:57.285Z,1008.45
2017-02-26T12:51:07.151Z,1008.33
2017-02-26T12:52:16.242Z,1008.28
2017-02-26T12:53:26.191Z,1008.31
2017-02-26T12:54:35.299Z,1008.25
2017-02-26T12:55:44.814Z,1008.25
2017-02-26T12:56:53.915Z,1008.26
2017-02-26T12:58:02.645Z,1008.27
2017-02-26T12:59:12.538Z,1008.21
2017-02-26T13:00:22.389Z,1008.13
2017-02-26T13:01:32.259Z,1008.17
2017-02-26T13:02:41.816Z,1008.12
2017-02-26T13:03:52.085Z,1008.16
2017-02-26T13:05:01.189Z,1008.19
2017-02-26T13:06:11.438Z,1008.19
2017-02-26T13:07:21.290Z,1008.13
2017-02-26T13:08:29.990Z,1008.13
2017-02-26T13:09:39.476Z,1008.21
2017-02-26T13:10:48.561Z,1008.22
2017-02-26T13:11:58.077Z,1008.19
2017-02-26T13:13:07.547Z,1008.21
2017-02-26T13:14:16.646Z,1008.11
2017-02-26T13:15:26.511Z,1008.08
2017-02-26T13:16:36.752Z,1008.12
2017-02-26T13:17:45.456Z,1008.1
2017-02-26T13:18:54.935Z,1008.1
2017-02-26T13:20:04.803Z,1008.1
2017-02-26T13:21:13.902Z,1008.15
2017-02-26T13:22:22.594Z,1008.15
2017-02-26T13:23:32.068Z,1008.11
2017-02-26T13:24:42.776Z,1008.19
2017-02-26T13:25:53.027Z,1008.13
2017-02-26T13:27:03.296Z,1008.18
2017-02-26T13:28:12.836Z,1008.06
2017-02-26T13:29:21.933Z,1008.12
2017-02-26T13:30:31.022Z,1008.13
2017-02-26T13:31:39.761Z,1008.21
2017-02-26T13:32:49.232Z,1008.19
2017-02-26T13:33:58.700Z,1008.21
2017-02-26T13:35:07.801Z,1008.21
2017-02-26T13:36:17.297Z,1008.2
2017-02-26T13:37:26.420Z,1008.19
2017-02-26T13:38:35.946Z,1008.13
2017-02-26T13:39:45.821Z,1008.07
2017-02-26T13:40:55.679Z,1008.18
2017-02-26T13:42:04.383Z,1008.03
2017-02-26T13:43:13.865Z,1008.17
2017-02-26T13:44:24.121Z,1008.13
2017-02-26T13:45:34.026Z,1008.12
2017-02-26T13:46:43.886Z,1008.15
2017-02-26T13:47:53.362Z,1008.16
2017-02-26T13:49:02.459Z,1008.05
2017-02-26T13:50:11.581Z,1008.01
2017-02-26T13:51:20.686Z,1008.04
2017-02-26T13:52:30.170Z,1008.13
2017-02-26T13:53:39.650Z,1008.11
2017-02-26T13:54:49.124Z,1008.07
2017-02-26T13:55:58.606Z,1008.04
2017-02-26T13:57:08.479Z,1008.11
2017-02-26T13:58:17.966Z,1008.09
2017-02-26T13:59:28.577Z,1008.14
2017-02-26T14:00:38.478Z,1008.03
2017-02-26T14:01:48.371Z,1008.01
2017-02-26T14:02:58.249Z,1008.1
2017-02-26T14:04:07.732Z,1008.03
2017-02-26T14:05:16.459Z,1008.02